Time;durP1;ratioP1;P1;durP2;ratioP2;P2;SDS_P1;SDS_P2;PMS_P1;PMS_P2;Temp;Humidity;BMP_temperature;BMP_pressure;BME280_temperature;BME280_humidity;BME280_pressure;Samples;Min_cycle;Max_cycle;Signal;HPM_P1;HPM_P2
2022/05/24 00:02:20;;;;;;;12.23;5.15;;;14.00;99.90;;;;;;5033457;28;20064;-76
2022/05/24 00:04:46;;;;;;;12.45;5.75;;;14.00;99.90;;;;;;5033259;28;20545;-76
2022/05/24 00:07:12;;;;;;;11.27;5.28;;;13.90;99.90;;;;;;5032549;28;20017;-77
2022/05/24 00:09:37;;;;;;;11.70;5.57;;;14.00;99.90;;;;;;5033467;28;20480;-77
2022/05/24 00:12:03;;;;;;;13.48;5.82;;;14.00;99.90;;;;;;5033906;28;20021;-77
2022/05/24 00:17:14;;;;;;;9.23;4.70;;;14.00;99.90;;;;;;5034145;28;20118;-77
2022/05/24 00:19:39;;;;;;;13.93;5.70;;;13.90;99.90;;;;;;5034098;28;20380;-77
2022/05/24 00:22:05;;;;;;;17.55;5.47;;;13.90;99.90;;;;;;5033854;28;20096;-76
2022/05/24 00:24:30;;;;;;;11.88;5.13;;;13.90;99.90;;;;;;5033389;28;20034;-76
2022/05/24 00:26:56;;;;;;;9.55;5.07;;;13.90;99.90;;;;;;5033318;28;20392;-76
2022/05/24 00:29:21;;;;;;;8.68;5.07;;;14.00;99.90;;;;;;5035973;28;20037;-76
2022/05/24 00:31:47;;;;;;;12.43;5.40;;;14.00;99.90;;;;;;5035922;28;20518;-76
2022/05/24 00:34:13;;;;;;;11.15;5.05;;;14.10;99.90;;;;;;5037411;28;20029;-76
2022/05/24 00:36:38;;;;;;;11.50;4.47;;;14.00;99.90;;;;;;5037265;28;20076;-76
2022/05/24 00:39:04;;;;;;;12.32;5.30;;;14.10;99.90;;;;;;5037281;28;20128;-76
2022/05/24 00:41:51;;;;;;;9.27;4.70;;;14.00;99.90;;;;;;5035932;28;20082;-76
2022/05/24 00:44:24;;;;;;;13.00;4.60;;;14.20;99.90;;;;;;5037026;28;20040;-76
2022/05/24 00:47:03;;;;;;;14.00;5.53;;;14.10;99.90;;;;;;5037296;28;20017;-76
2022/05/24 00:49:37;;;;;;;13.07;5.47;;;14.00;99.90;;;;;;5036976;28;20388;-76
2022/05/24 00:52:18;;;;;;;11.90;5.45;;;14.00;99.90;;;;;;5037235;28;20029;-76
2022/05/24 00:54:44;;;;;;;15.52;5.22;;;14.00;99.90;;;;;;5036706;28;20398;-76
2022/05/24 00:57:26;;;;;;;13.38;5.13;;;14.00;99.90;;;;;;5035847;28;20021;-76
2022/05/24 00:59:59;;;;;;;12.27;6.20;;;14.00;99.90;;;;;;5036928;28;20031;-76
2022/05/24 01:02:25;;;;;;;16.08;6.90;;;14.00;99.90;;;;;;5037431;28;20056;-76
2022/05/24 01:04:50;;;;;;;15.52;7.78;;;13.90;99.90;;;;;;5036290;28;20041;-76
2022/05/24 01:07:16;;;;;;;13.70;7.25;;;13.90;99.90;;;;;;5036626;28;20026;-76
2022/05/24 01:09:48;;;;;;;15.48;8.05;;;13.80;99.90;;;;;;5036719;28;20025;-76
2022/05/24 01:12:25;;;;;;;17.45;7.03;;;13.90;99.90;;;;;;5036494;28;20022;-76
2022/05/24 01:14:53;;;;;;;14.52;6.72;;;13.80;99.90;;;;;;5036256;28;20487;-76
2022/05/24 01:17:19;;;;;;;18.13;6.68;;;13.80;99.90;;;;;;5036176;28;20061;-76
2022/05/24 01:19:47;;;;;;;20.40;7.88;;;13.80;99.90;;;;;;5034888;28;20108;-76
2022/05/24 01:22:23;;;;;;;18.65;6.90;;;13.70;99.90;;;;;;5036411;28;20097;-76
2022/05/24 01:25:02;;;;;;;14.85;6.72;;;13.70;99.90;;;;;;5036430;28;20026;-76
2022/05/24 01:27:28;;;;;;;17.13;7.25;;;13.60;99.90;;;;;;5034981;28;20495;-76
2022/05/24 01:29:54;;;;;;;12.88;6.25;;;13.50;99.90;;;;;;5036235;28;20021;-76
2022/05/24 01:37:48;;;;;;;11.60;5.05;;;13.40;99.90;;;;;;5036822;28;20502;-76
2022/05/24 01:40:14;;;;;;;9.75;4.05;;;13.40;99.90;;;;;;5035691;28;20022;-76
2022/05/24 01:42:40;;;;;;;10.55;3.72;;;13.40;99.90;;;;;;5036259;28;20389;-76
2022/05/24 01:45:18;;;;;;;13.70;4.15;;;13.30;99.90;;;;;;5035632;28;20090;-76
2022/05/24 01:47:45;;;;;;;14.50;3.60;;;13.30;99.90;;;;;;5035650;28;20025;-76
2022/05/24 01:50:16;;;;;;;10.07;2.72;;;13.30;99.90;;;;;;5035808;28;20373;-75
2022/05/24 01:53:14;;;;;;;13.50;2.78;;;13.20;99.90;;;;;;5035680;28;20028;-75
2022/05/24 01:55:45;;;;;;;12.10;2.70;;;13.20;99.90;;;;;;5021515;28;20034;-76
2022/05/24 01:58:13;;;;;;;11.02;2.97;;;13.30;99.90;;;;;;5036279;28;20025;-76
2022/05/24 02:00:43;;;;;;;7.63;2.78;;;13.30;99.90;;;;;;5035641;28;20025;-76
2022/05/24 02:03:09;;;;;;;10.63;2.45;;;13.30;99.90;;;;;;5036150;28;20021;-76
2022/05/24 02:05:37;;;;;;;8.60;2.38;;;13.30;99.90;;;;;;5034496;28;20028;-76
2022/05/24 02:08:07;;;;;;;4.72;1.60;;;13.30;99.90;;;;;;5035631;28;20480;-76
2022/05/24 02:10:43;;;;;;;8.63;2.13;;;13.30;99.90;;;;;;5034159;28;20017;-76
2022/05/24 02:13:10;;;;;;;10.15;2.83;;;13.30;99.90;;;;;;5035337;28;20021;-76
2022/05/24 02:15:40;;;;;;;7.97;2.40;;;13.30;99.90;;;;;;5033764;28;20026;-76
2022/05/24 02:18:10;;;;;;;8.00;2.53;;;13.30;99.90;;;;;;5034997;28;20029;-76
2022/05/24 02:20:39;;;;;;;6.30;2.30;;;13.20;99.90;;;;;;5034218;28;20071;-76
2022/05/24 02:23:05;;;;;;;7.60;2.08;;;13.20;99.90;;;;;;5035188;28;20025;-76
2022/05/24 02:25:54;;;;;;;8.85;2.38;;;13.20;99.90;;;;;;5035618;28;20092;-76
2022/05/24 02:28:23;;;;;;;5.10;1.75;;;13.20;99.90;;;;;;5035160;28;20029;-76
2022/05/24 02:30:52;;;;;;;11.63;2.35;;;13.20;99.90;;;;;;5034517;28;20026;-76
2022/05/24 02:33:19;;;;;;;5.68;2.17;;;13.20;99.90;;;;;;5035347;28;20503;-76
2022/05/24 02:35:46;;;;;;;9.70;3.05;;;13.20;99.90;;;;;;5035407;28;20362;-76
2022/05/24 02:38:12;;;;;;;7.45;2.90;;;13.20;99.90;;;;;;5035571;28;20076;-76
2022/05/24 02:43:22;;;;;;;9.60;3.22;;;13.10;99.90;;;;;;5035643;28;20044;-76
2022/05/24 02:45:47;;;;;;;9.52;2.25;;;13.10;99.90;;;;;;5034325;28;20022;-76
2022/05/24 02:48:13;;;;;;;10.05;3.05;;;13.10;99.90;;;;;;5034286;28;20485;-76
2022/05/24 02:50:39;;;;;;;14.15;2.97;;;13.10;99.90;;;;;;5033959;28;20553;-76
2022/05/24 02:53:04;;;;;;;6.03;2.92;;;13.10;99.90;;;;;;5034495;28;20117;-76
2022/05/24 02:55:30;;;;;;;12.38;3.17;;;13.20;99.90;;;;;;5034438;28;20446;-76
2022/05/24 02:57:56;;;;;;;12.90;3.58;;;13.20;99.90;;;;;;5033114;28;20029;-76
2022/05/24 03:00:24;;;;;;;8.20;2.95;;;14.60;99.90;;;;;;5032949;28;20511;-76
2022/05/24 03:02:50;;;;;;;8.02;3.13;;;13.10;99.90;;;;;;5034333;28;20032;-76
2022/05/24 03:05:17;;;;;;;9.98;3.03;;;13.20;99.90;;;;;;5033947;28;20021;-76
2022/05/24 03:10:28;;;;;;;9.27;2.35;;;13.20;99.90;;;;;;5035030;28;20086;-77
2022/05/24 03:15:40;;;;;;;5.45;2.47;;;13.20;99.90;;;;;;5034573;28;20036;-76
2022/05/24 03:18:06;;;;;;;12.43;3.53;;;13.20;99.90;;;;;;5033997;28;20033;-76
2022/05/24 03:20:33;;;;;;;8.52;2.92;;;13.10;99.90;;;;;;5034148;28;20061;-76
2022/05/24 03:22:59;;;;;;;13.63;3.38;;;13.20;99.90;;;;;;5033947;28;20029;-76
2022/05/24 03:25:24;;;;;;;8.23;3.75;;;13.20;99.90;;;;;;5034745;28;20033;-75
2022/05/24 03:27:50;;;;;;;6.00;3.17;;;13.20;99.90;;;;;;5033872;28;20120;-75
2022/05/24 03:30:16;;;;;;;10.25;3.47;;;13.30;99.90;;;;;;5033784;28;20103;-75
2022/05/24 03:32:42;;;;;;;6.20;2.63;;;13.10;99.90;;;;;;5034240;28;20030;-75
2022/05/24 03:35:13;;;;;;;7.32;3.17;;;13.10;99.90;;;;;;5033574;28;20021;-76
2022/05/24 03:37:39;;;;;;;7.28;3.28;;;13.10;99.90;;;;;;5033734;28;20085;-76
2022/05/24 03:40:09;;;;;;;8.70;3.88;;;13.10;99.90;;;;;;5034208;28;20405;-76
2022/05/24 03:42:35;;;;;;;9.38;4.30;;;13.10;99.90;;;;;;5033719;28;20029;-76
2022/05/24 03:45:01;;;;;;;8.48;3.13;;;13.00;99.90;;;;;;5033451;28;20032;-76
2022/05/24 03:47:26;;;;;;;5.55;3.60;;;13.00;99.90;;;;;;5033684;28;20021;-76
2022/05/24 03:49:52;;;;;;;10.70;3.53;;;13.00;99.90;;;;;;5032216;28;20025;-76
2022/05/24 03:52:18;;;;;;;11.13;3.80;;;13.00;99.90;;;;;;5032193;28;20383;-76
2022/05/24 03:54:44;;;;;;;13.18;4.55;;;12.90;99.90;;;;;;5033345;28;20480;-76
2022/05/24 03:59:53;;;;;;;6.95;4.10;;;12.80;99.90;;;;;;5034251;28;20032;-77
2022/05/24 04:02:19;;;;;;;11.50;4.53;;;12.80;99.90;;;;;;5033785;28;20029;-76
2022/05/24 04:04:44;;;;;;;15.45;4.47;;;12.80;99.90;;;;;;5036057;28;20112;-75
2022/05/24 04:07:10;;;;;;;14.13;5.35;;;12.70;99.90;;;;;;5037646;28;20071;-76
2022/05/24 04:09:36;;;;;;;11.77;4.60;;;12.80;99.90;;;;;;5037220;28;20023;-76
2022/05/24 04:12:02;;;;;;;14.77;4.70;;;12.80;99.90;;;;;;5037345;28;20018;-76
2022/05/24 04:14:29;;;;;;;16.05;5.43;;;12.80;99.90;;;;;;5037057;28;20029;-76
2022/05/24 04:16:55;;;;;;;16.75;5.53;;;12.90;99.90;;;;;;5037109;28;20030;-76
2022/05/24 04:19:24;;;;;;;12.40;4.43;;;12.90;99.90;;;;;;5037124;28;20033;-76
2022/05/24 04:21:50;;;;;;;15.15;6.00;;;12.90;99.90;;;;;;5035774;28;20063;-75
2022/05/24 04:24:16;;;;;;;12.35;4.95;;;12.90;99.90;;;;;;5035703;28;20472;-75
2022/05/24 04:26:41;;;;;;;17.27;6.32;;;14.10;99.90;;;;;;5035686;28;20029;-76
2022/05/24 04:29:07;;;;;;;16.83;6.20;;;12.90;99.90;;;;;;5036964;28;20074;-75
2022/05/24 04:31:33;;;;;;;12.07;5.70;;;13.00;99.90;;;;;;5035402;28;20040;-75
2022/05/24 04:33:59;;;;;;;18.95;6.07;;;13.00;99.90;;;;;;5037082;28;20025;-76
2022/05/24 04:36:25;;;;;;;10.73;5.30;;;12.90;99.90;;;;;;5036759;28;20025;-76
2022/05/24 04:38:50;;;;;;;16.27;5.68;;;12.80;99.90;;;;;;5037075;28;20057;-75
2022/05/24 04:44:00;;;;;;;13.15;5.57;;;13.00;99.90;;;;;;5036739;28;20573;-76
2022/05/24 04:46:25;;;;;;;15.05;7.05;;;13.10;99.90;;;;;;5036703;28;20021;-76
2022/05/24 04:49:11;;;;;;;17.20;5.68;;;13.00;99.90;;;;;;5036184;28;20136;-76
2022/05/24 04:51:36;;;;;;;14.00;6.22;;;13.00;99.90;;;;;;5035082;28;20056;-76
2022/05/24 04:54:02;;;;;;;14.32;5.78;;;12.90;99.90;;;;;;5036099;28;20091;-76
2022/05/24 04:56:27;;;;;;;20.20;6.05;;;13.00;99.90;;;;;;5036246;28;20025;-76
2022/05/24 04:58:53;;;;;;;14.57;5.72;;;12.90;99.90;;;;;;5036339;28;20102;-76
2022/05/24 05:01:18;;;;;;;10.20;5.90;;;12.90;99.90;;;;;;5036511;28;20388;-76
2022/05/24 05:03:44;;;;;;;16.38;6.18;;;12.90;99.90;;;;;;5034662;28;20060;-76
2022/05/24 05:06:10;;;;;;;19.55;5.18;;;12.90;99.90;;;;;;5036180;28;20029;-75
2022/05/24 05:08:36;;;;;;;13.68;5.22;;;12.80;99.90;;;;;;5036237;28;20014;-76
2022/05/24 05:11:01;;;;;;;17.80;5.65;;;12.90;99.90;;;;;;5036078;28;20447;-76
2022/05/24 05:13:27;;;;;;;11.57;5.20;;;12.90;99.90;;;;;;5036185;28;20473;-76
2022/05/24 05:15:53;;;;;;;12.18;4.80;;;13.00;99.90;;;;;;5035452;28;20037;-76
2022/05/24 05:18:20;;;;;;;12.73;4.65;;;13.00;99.90;;;;;;5036338;28;20029;-76
2022/05/24 05:20:46;;;;;;;12.02;4.40;;;13.00;99.90;;;;;;5036079;28;20021;-75
2022/05/24 05:23:14;;;;;;;13.30;4.28;;;13.00;99.90;;;;;;5034461;28;20036;-75
2022/05/24 05:25:41;;;;;;;6.70;3.20;;;12.90;99.90;;;;;;5035619;28;20021;-75
2022/05/24 05:28:08;;;;;;;13.05;3.63;;;13.10;99.90;;;;;;5034347;28;20029;-75
2022/05/24 05:33:18;;;;;;;14.48;3.53;;;12.90;99.90;;;;;;5035773;28;20032;-75
2022/05/24 05:35:45;;;;;;;6.45;2.90;;;13.00;99.90;;;;;;5034195;28;20022;-75
2022/05/24 05:38:11;;;;;;;7.38;2.60;;;13.00;99.90;;;;;;5035337;28;20025;-74
2022/05/24 05:40:37;;;;;;;6.72;1.85;;;13.00;99.90;;;;;;5035371;28;20026;-75
2022/05/24 05:43:03;;;;;;;7.78;2.38;;;13.00;99.90;;;;;;5035300;28;20029;-75
2022/05/24 05:45:28;;;;;;;7.50;1.85;;;12.90;99.90;;;;;;5035165;28;20056;-76
2022/05/24 05:47:54;;;;;;;8.25;1.42;;;12.90;99.90;;;;;;5035734;28;20121;-75
2022/05/24 05:50:20;;;;;;;7.85;1.63;;;12.90;99.90;;;;;;5035510;28;20080;-75
2022/05/24 05:52:47;;;;;;;4.93;1.63;;;12.90;99.90;;;;;;5035839;28;20469;-75
2022/05/24 05:55:12;;;;;;;5.18;1.10;;;13.00;99.90;;;;;;5034598;28;20018;-75
2022/05/24 05:57:39;;;;;;;5.65;0.95;;;12.90;99.90;;;;;;5034238;28;20048;-75
2022/05/24 06:00:08;;;;;;;3.60;1.88;;;12.90;99.90;;;;;;5034360;28;20022;-75
2022/05/24 06:02:34;;;;;;;5.30;0.75;;;13.00;99.90;;;;;;5035943;28;20100;-75
2022/05/24 06:04:59;;;;;;;9.18;0.90;;;13.00;99.90;;;;;;5033891;28;20124;-75
2022/05/24 06:07:25;;;;;;;9.32;1.27;;;13.00;99.90;;;;;;5034124;28;20030;-75
2022/05/24 06:09:50;;;;;;;5.22;0.88;;;13.00;99.90;;;;;;5033896;28;20021;-75
2022/05/24 06:12:17;;;;;;;6.18;1.50;;;13.00;99.90;;;;;;5033868;28;20466;-75
2022/05/24 06:14:42;;;;;;;14.77;1.92;;;12.90;99.90;;;;;;5035019;28;20564;-74
2022/05/24 06:17:08;;;;;;;12.07;2.42;;;13.00;99.90;;;;;;5034987;28;20029;-75
2022/05/24 06:19:34;;;;;;;9.05;1.30;;;13.00;99.90;;;;;;5033794;28;20029;-75
2022/05/24 06:21:59;;;;;;;4.70;1.60;;;13.00;99.90;;;;;;5035519;28;20040;-76
2022/05/24 06:24:25;;;;;;;5.72;2.08;;;13.10;99.90;;;;;;5035350;28;20407;-77
2022/05/24 06:26:51;;;;;;;5.68;2.60;;;13.10;99.90;;;;;;5034462;28;20061;-75
2022/05/24 06:29:17;;;;;;;12.55;2.40;;;13.10;99.90;;;;;;5035191;28;20017;-79
2022/05/24 06:31:44;;;;;;;12.73;2.53;;;13.10;99.90;;;;;;5058635;23;20076;-76
2022/05/24 06:34:11;;;;;;;7.82;2.47;;;13.10;99.90;;;;;;5053370;28;20021;-76
2022/05/24 06:36:36;;;;;;;4.28;1.90;;;13.10;99.90;;;;;;5056001;28;20032;-76
2022/05/24 06:39:03;;;;;;;7.13;2.55;;;13.20;99.90;;;;;;5055552;28;20557;-76
2022/05/24 06:41:29;;;;;;;5.72;2.55;;;13.20;99.90;;;;;;5055613;28;20025;-76
2022/05/24 06:43:54;;;;;;;9.75;2.72;;;13.30;99.90;;;;;;5055588;28;20032;-76
2022/05/24 06:46:20;;;;;;;5.68;2.05;;;13.30;99.90;;;;;;5055290;28;20032;-76
2022/05/24 06:48:46;;;;;;;6.57;2.40;;;13.40;99.90;;;;;;5054066;28;20510;-76
2022/05/24 06:51:17;;;;;;;7.53;2.65;;;13.70;99.90;;;;;;5054286;28;20542;-77
2022/05/24 06:53:45;;;;;;;9.68;3.67;;;13.60;99.90;;;;;;5054480;28;20021;-76
2022/05/24 06:56:11;;;;;;;8.82;2.72;;;13.80;99.90;;;;;;5053553;28;20024;-76
2022/05/24 06:58:37;;;;;;;12.70;2.42;;;13.90;99.90;;;;;;5055618;28;20467;-76
2022/05/24 07:03:49;;;;;;;6.70;1.70;;;14.00;99.90;;;;;;5055115;28;20036;-76
2022/05/24 07:06:15;;;;;;;12.15;2.17;;;14.00;99.90;;;;;;5055372;28;20021;-76
2022/05/24 07:08:45;;;;;;;4.38;1.45;;;14.40;99.90;;;;;;5053940;28;20071;-76
2022/05/24 07:11:11;;;;;;;3.08;1.40;;;14.00;99.90;;;;;;5055236;28;20028;-76
2022/05/24 07:13:38;;;;;;;3.15;1.20;;;13.90;99.90;;;;;;5054526;28;20021;-76
2022/05/24 07:16:04;;;;;;;3.75;1.08;;;13.90;99.90;;;;;;5053829;28;20017;-76
2022/05/24 07:18:30;;;;;;;3.65;1.08;;;14.00;99.90;;;;;;5055233;28;20078;-77
2022/05/24 07:20:55;;;;;;;2.88;0.77;;;14.00;99.90;;;;;;5055519;28;20025;-77
2022/05/24 07:23:24;;;;;;;3.50;0.60;;;13.90;99.90;;;;;;5055129;28;20025;-75
2022/05/24 07:25:51;;;;;;;4.22;1.25;;;13.90;99.90;;;;;;5054374;28;20021;-76
2022/05/24 07:28:17;;;;;;;4.93;1.02;;;13.70;99.90;;;;;;5053472;28;20032;-76
2022/05/24 07:30:44;;;;;;;4.72;0.38;;;13.70;99.90;;;;;;5056063;28;20023;-77
2022/05/24 07:33:10;;;;;;;15.25;0.40;;;13.70;99.90;;;;;;5055136;28;20021;-77
2022/05/24 07:35:37;;;;;;;2.92;0.50;;;14.10;99.90;;;;;;5054268;28;20025;-77
2022/05/24 07:38:09;;;;;;;2.05;0.43;;;14.40;99.90;;;;;;5054495;28;20075;-77
2022/05/24 07:46:10;;;;;;;0.30;0.28;;;14.80;99.90;;;;;;5056490;28;20036;-77
2022/05/24 07:48:36;;;;;;;3.33;0.25;;;14.80;99.90;;;;;;5054334;28;20060;-78
2022/05/24 07:51:02;;;;;;;2.00;0.10;;;14.80;99.90;;;;;;5053335;28;20114;-78
2022/05/24 07:53:28;;;;;;;3.78;0.73;;;14.90;99.90;;;;;;5055213;28;20028;-78
2022/05/24 07:55:55;;;;;;;3.13;0.28;;;15.10;99.90;;;;;;5055280;28;20057;-77
2022/05/24 07:58:21;;;;;;;2.00;0.17;;;15.00;99.90;;;;;;5055243;28;20111;-77
2022/05/24 08:00:47;;;;;;;3.10;0.30;;;15.10;99.90;;;;;;5054092;28;20491;-77
2022/05/24 08:03:14;;;;;;;4.13;0.20;;;15.20;99.90;;;;;;5054603;28;20032;-77
2022/05/24 08:05:40;;;;;;;3.95;0.40;;;15.10;99.90;;;;;;5054561;28;20438;-77
2022/05/24 08:08:07;;;;;;;4.25;0.65;;;15.30;99.90;;;;;;5053511;28;20123;-78
2022/05/24 08:10:34;;;;;;;2.25;0.57;;;14.70;99.90;;;;;;5053120;28;20033;-77
2022/05/24 08:13:06;;;;;;;1.40;0.40;;;14.60;99.90;;;;;;5054158;28;20048;-77
2022/05/24 08:15:32;;;;;;;2.85;0.68;;;14.40;99.90;;;;;;5053617;28;20081;-78
2022/05/24 08:17:58;;;;;;;3.17;0.52;;;14.20;99.90;;;;;;5055186;28;20021;-77
2022/05/24 08:20:24;;;;;;;4.28;0.10;;;14.20;99.90;;;;;;5055404;28;20036;-77
2022/05/24 08:22:50;;;;;;;1.00;0.00;;;14.30;99.90;;;;;;5053706;28;20057;-77
2022/05/24 08:25:16;;;;;;;2.58;0.65;;;14.30;99.90;;;;;;5055096;28;20044;-78
2022/05/24 08:27:43;;;;;;;2.08;0.00;;;14.30;99.90;;;;;;5054532;28;20056;-78
2022/05/24 08:30:12;;;;;;;2.78;0.00;;;14.30;99.90;;;;;;5054832;28;20021;-78
2022/05/24 08:32:38;;;;;;;2.22;0.00;;;14.10;99.90;;;;;;5054740;28;20035;-78
2022/05/24 08:35:05;;;;;;;7.22;0.15;;;14.10;99.90;;;;;;5053718;28;20029;-77
2022/05/24 08:37:31;;;;;;;1.77;0.00;;;14.00;99.90;;;;;;5056111;28;20025;-77
2022/05/24 08:39:59;;;;;;;1.55;0.20;;;14.10;99.90;;;;;;5056220;28;20029;-78
2022/05/24 08:42:32;;;;;;;2.92;0.00;;;14.00;99.90;;;;;;5054168;28;20021;-77
2022/05/24 08:50:42;;;;;;;1.35;0.00;;;14.30;99.90;;;;;;5057763;28;20032;-77
2022/05/24 08:53:10;;;;;;;2.58;0.00;;;14.20;99.90;;;;;;5058307;28;20025;-77
2022/05/24 08:55:41;;;;;;;2.40;0.00;;;14.10;99.90;;;;;;5058570;28;20025;-77
2022/05/24 08:58:14;;;;;;;3.90;0.13;;;13.90;99.90;;;;;;5058012;28;20033;-77
2022/05/24 09:00:41;;;;;;;1.00;0.00;;;13.80;99.90;;;;;;5056770;28;20511;-76
2022/05/24 09:03:08;;;;;;;0.43;0.00;;;13.60;99.90;;;;;;5058132;28;20029;-76
2022/05/24 09:06:04;;;;;;;1.00;0.00;;;14.90;99.90;;;;;;5057446;28;20471;-77
2022/05/24 09:08:37;;;;;;;1.15;0.20;;;14.10;99.90;;;;;;5057081;28;20021;-72
2022/05/24 09:11:18;;;;;;;1.95;0.20;;;14.70;99.90;;;;;;5057939;28;20025;-73
2022/05/24 09:13:57;;;;;;;0.20;0.13;;;14.90;99.90;;;;;;5057871;28;20175;-74
2022/05/24 09:16:33;;;;;;;3.25;0.45;;;14.90;99.90;;;;;;5058152;28;20036;-77
2022/05/24 09:19:14;;;;;;;0.50;0.00;;;14.80;99.90;;;;;;5059819;28;20032;-77
2022/05/24 09:21:42;;;;;;;1.50;0.00;;;14.50;99.90;;;;;;5057882;28;20102;-77
2022/05/24 09:24:26;;;;;;;0.28;0.00;;;14.20;99.90;;;;;;5058458;28;20498;-78
2022/05/24 09:27:07;;;;;;;1.73;0.00;;;14.00;99.90;;;;;;5057688;28;20122;-78
2022/05/24 09:29:35;;;;;;;1.67;0.65;;;13.90;99.90;;;;;;5059342;28;20410;-77
2022/05/24 09:32:08;;;;;;;2.40;0.20;;;13.90;99.90;;;;;;5057965;28;20033;-78
2022/05/24 09:34:36;;;;;;;2.13;0.00;;;13.90;99.90;;;;;;5056596;28;20036;-78
2022/05/24 09:37:25;;;;;;;1.30;0.10;;;13.80;99.90;;;;;;5058194;28;20029;-78
2022/05/24 09:40:15;;;;;;;0.60;0.00;;;13.80;99.90;;;;;;5055374;28;20033;-77
2022/05/24 09:42:41;;;;;;;0.10;0.00;;;13.80;99.90;;;;;;5056962;28;20082;-76
2022/05/24 09:45:23;;;;;;;2.08;0.00;;;14.00;99.90;;;;;;5056502;28;20488;-76
2022/05/24 09:47:57;;;;;;;1.63;0.00;;;14.20;99.90;;;;;;5057690;28;20025;-76
2022/05/24 09:50:39;;;;;;;1.42;0.10;;;14.60;99.90;;;;;;5057644;28;20021;-76
2022/05/24 09:53:26;;;;;;;0.60;0.10;;;15.10;99.90;;;;;;5057158;28;20016;-76
2022/05/24 09:56:01;;;;;;;0.25;0.22;;;15.40;99.90;;;;;;5057010;28;20096;-75
2022/05/24 09:58:33;;;;;;;0.93;0.03;;;15.50;99.90;;;;;;5057193;28;20057;-75
2022/05/24 10:01:11;;;;;;;0.10;0.00;;;15.30;99.90;;;;;;5056757;28;20407;-75
2022/05/24 10:03:38;;;;;;;0.68;0.05;;;14.90;99.90;;;;;;5055076;28;20040;-75
2022/05/24 10:06:03;;;;;;;0.38;0.20;;;14.70;99.90;;;;;;5056551;28;20031;-75
2022/05/24 10:08:35;;;;;;;0.35;0.00;;;14.40;99.90;;;;;;5056646;28;20108;-75
2022/05/24 10:11:02;;;;;;;0.15;0.00;;;14.10;99.90;;;;;;5056865;28;20028;-75
2022/05/24 10:13:31;;;;;;;0.70;0.03;;;13.80;99.90;;;;;;5054910;28;20115;-75
2022/05/24 10:16:17;;;;;;;0.10;0.00;;;13.50;99.90;;;;;;5054675;28;20099;-75
2022/05/24 10:18:45;;;;;;;0.65;0.13;;;13.40;99.90;;;;;;5055217;28;20041;-75
2022/05/24 10:21:21;;;;;;;8.38;1.25;;;13.10;99.90;;;;;;5056049;28;20063;-75
2022/05/24 10:24:15;;;;;;;6.38;0.28;;;12.90;99.90;;;;;;5055716;28;20021;-75
2022/05/24 10:27:13;;;;;;;2.35;0.03;;;12.80;99.90;;;;;;5055934;28;20092;-75
2022/05/24 10:30:00;;;;;;;0.88;0.00;;;12.90;99.90;;;;;;5055404;28;20067;-75
2022/05/24 10:38:20;;;;;;;0.68;0.20;;;13.80;99.90;;;;;;5056595;28;20044;-75
2022/05/24 10:41:11;;;;;;;1.13;0.00;;;14.20;99.90;;;;;;5049565;28;20119;-75
2022/05/24 10:43:55;;;;;;;0.55;0.00;;;14.60;99.90;;;;;;5055791;28;20074;-75
2022/05/24 10:47:03;;;;;;;1.10;0.10;;;14.90;99.90;;;;;;5055676;28;20441;-75
2022/05/24 10:49:42;;;;;;;2.55;0.25;;;15.20;99.90;;;;;;5055928;28;20021;-75
2022/05/24 10:52:20;;;;;;;2.28;0.05;;;15.40;99.90;;;;;;5056078;28;20032;-75
2022/05/24 10:54:56;;;;;;;0.75;0.08;;;15.60;99.90;;;;;;5055844;28;20036;-75
2022/05/24 10:57:30;;;;;;;0.30;0.10;;;15.90;99.90;;;;;;5055956;28;20028;-75
2022/05/24 11:00:13;;;;;;;2.40;0.43;;;16.10;99.90;;;;;;5055685;28;20020;-75
2022/05/24 11:02:58;;;;;;;0.68;0.10;;;16.30;99.90;;;;;;5055976;28;20032;-75
2022/05/24 11:05:40;;;;;;;1.17;0.00;;;16.10;99.90;;;;;;5055365;28;20021;-76
2022/05/24 11:08:18;;;;;;;1.83;0.10;;;16.20;99.90;;;;;;5053906;28;20052;-76
2022/05/24 11:10:47;;;;;;;1.20;0.03;;;16.50;99.90;;;;;;5055631;28;20017;-74
2022/05/24 11:13:20;;;;;;;2.15;0.10;;;16.90;99.90;;;;;;5053145;28;20017;-73
2022/05/24 11:15:54;;;;;;;3.00;0.20;;;17.10;99.90;;;;;;5055764;28;20105;-73
2022/05/24 11:18:23;;;;;;;2.75;0.22;;;16.60;99.90;;;;;;5055778;28;20543;-73
2022/05/24 11:21:12;;;;;;;2.35;0.13;;;16.20;99.90;;;;;;5055669;28;20017;-73
2022/05/24 11:24:02;;;;;;;0.32;0.00;;;16.00;99.90;;;;;;5048699;28;20048;-73
2022/05/24 11:26:32;;;;;;;0.95;0.00;;;15.80;99.90;;;;;;5055439;28;20066;-73
2022/05/24 11:29:12;;;;;;;2.63;0.00;;;15.70;99.90;;;;;;5054090;28;20463;-73
2022/05/24 11:31:49;;;;;;;1.20;0.00;;;15.70;99.90;;;;;;5054687;28;20021;-73
2022/05/24 11:34:31;;;;;;;3.17;0.10;;;16.10;99.90;;;;;;5054113;28;20032;-73
2022/05/24 11:37:01;;;;;;;3.78;0.20;;;16.60;99.90;;;;;;5053087;28;20683;-73
2022/05/24 11:39:35;;;;;;;0.93;0.00;;;16.50;99.90;;;;;;5054339;28;20032;-74
2022/05/24 11:42:19;;;;;;;4.43;0.20;;;16.40;99.90;;;;;;5054526;28;20028;-73
2022/05/24 11:44:45;;;;;;;0.68;0.00;;;16.10;99.90;;;;;;5053179;28;20040;-73
2022/05/24 11:47:39;;;;;;;1.40;0.55;;;16.00;99.90;;;;;;5053612;28;20025;-73
2022/05/24 11:50:28;;;;;;;1.08;0.08;;;16.00;99.90;;;;;;5054335;28;20032;-73
2022/05/24 11:53:26;;;;;;;1.48;0.00;;;15.90;99.90;;;;;;5051774;28;20179;-73
2022/05/24 11:55:54;;;;;;;1.65;0.10;;;15.70;99.90;;;;;;5053346;28;20027;-73
2022/05/24 11:58:20;;;;;;;0.65;0.20;;;15.50;99.90;;;;;;5055032;28;20056;-73
2022/05/24 12:01:04;;;;;;;1.60;0.13;;;15.70;99.90;;;;;;5053484;28;20068;-73
2022/05/24 12:09:25;;;;;;;2.90;0.00;;;15.10;99.90;;;;;;5054764;28;20048;-73
2022/05/24 12:12:18;;;;;;;1.05;0.15;;;15.00;99.90;;;;;;5055357;28;20021;-74
2022/05/24 12:14:44;;;;;;;0.93;0.20;;;15.10;99.90;;;;;;5054328;28;20024;-74
2022/05/24 12:17:14;;;;;;;1.65;0.00;;;15.10;99.90;;;;;;5053154;28;20021;-74
2022/05/24 12:19:42;;;;;;;1.95;0.00;;;15.10;99.90;;;;;;5054906;28;20387;-73
2022/05/24 12:22:07;;;;;;;4.40;0.35;;;15.20;99.90;;;;;;5054163;28;20021;-74
2022/05/24 12:24:36;;;;;;;0.55;0.00;;;15.40;99.90;;;;;;5054127;28;20063;-74
2022/05/24 12:27:16;;;;;;;2.70;0.00;;;15.50;99.90;;;;;;5056799;28;20044;-74
2022/05/24 12:29:59;;;;;;;3.05;0.10;;;15.90;99.90;;;;;;5057890;28;20033;-74
2022/05/24 12:32:29;;;;;;;4.38;0.40;;;16.70;99.90;;;;;;5057650;28;20035;-73
2022/05/24 12:35:06;;;;;;;10.15;0.10;;;17.60;99.90;;;;;;5058247;28;20067;-73
2022/05/24 12:37:35;;;;;;;1.05;0.00;;;18.30;99.90;;;;;;5058659;28;20545;-73
2022/05/24 12:40:22;;;;;;;4.10;0.20;;;18.50;99.90;;;;;;5055952;28;20495;-74
2022/05/24 12:43:07;;;;;;;1.98;0.00;;;18.20;99.90;;;;;;5058097;28;20025;-73
2022/05/24 12:45:32;;;;;;;1.25;0.30;;;18.00;99.90;;;;;;5058101;28;20468;-74
2022/05/24 12:47:58;;;;;;;0.73;0.00;;;17.40;99.90;;;;;;5056723;28;20025;-73
2022/05/24 12:50:26;;;;;;;1.35;0.00;;;17.10;99.90;;;;;;5058164;28;20092;-73
2022/05/24 12:52:58;;;;;;;0.70;0.00;;;17.40;99.90;;;;;;5058063;28;20526;-74
2022/05/24 12:55:54;;;;;;;1.55;0.35;;;18.00;99.90;;;;;;5057627;28;20029;-73
2022/05/24 12:58:25;;;;;;;1.75;0.55;;;18.30;99.90;;;;;;5057885;28;20037;-73
2022/05/24 13:00:51;;;;;;;2.00;0.00;;;18.50;99.90;;;;;;5056485;28;20025;-73
2022/05/24 13:03:22;;;;;;;0.52;0.00;;;18.40;98.20;;;;;;5057581;28;20025;-74
2022/05/24 13:05:54;;;;;;;0.30;0.00;;;18.50;99.90;;;;;;5056890;28;20052;-74
2022/05/24 13:08:21;;;;;;;0.15;0.00;;;18.50;99.90;;;;;;5056839;28;20083;-74
2022/05/24 13:10:48;;;;;;;1.42;0.00;;;18.30;97.50;;;;;;5057025;28;20460;-74
2022/05/24 13:13:22;;;;;;;1.35;0.00;;;18.10;97.90;;;;;;5055429;28;20013;-74
2022/05/24 13:15:55;;;;;;;1.10;0.00;;;17.80;96.00;;;;;;5057057;28;20035;-73
2022/05/24 13:18:27;;;;;;;0.10;0.00;;;17.50;96.50;;;;;;5057317;28;20480;-74
2022/05/24 13:20:54;;;;;;;2.13;0.20;;;17.10;95.90;;;;;;5055583;28;20024;-74
2022/05/24 13:23:32;;;;;;;0.35;0.00;;;17.10;99.90;;;;;;5055399;28;20395;-74
2022/05/24 13:26:03;;;;;;;0.00;0.00;;;18.00;99.70;;;;;;5056727;28;20388;-74
2022/05/24 13:28:45;;;;;;;1.38;0.00;;;18.50;97.20;;;;;;5055358;28;20067;-76
2022/05/24 13:34:11;;;;;;;0.85;0.00;;;18.90;93.40;;;;;;5057031;28;20036;-75
2022/05/24 13:36:45;;;;;;;0.95;0.00;;;18.50;95.40;;;;;;5055868;28;20017;-75
2022/05/24 13:39:21;;;;;;;0.40;0.00;;;18.40;96.80;;;;;;5056977;28;20021;-74
2022/05/24 13:42:26;;;;;;;0.00;0.00;;;18.40;98.40;;;;;;5056538;28;20487;-75
2022/05/24 13:45:14;;;;;;;0.40;0.00;;;18.40;99.30;;;;;;5055176;28;20053;-75
2022/05/24 13:47:54;;;;;;;0.15;0.00;;;18.30;94.50;;;;;;5055054;28;20018;-74
2022/05/24 13:50:25;;;;;;;0.05;0.00;;;18.20;95.40;;;;;;5056022;28;20100;-74
2022/05/24 13:52:51;;;;;;;0.22;0.00;;;19.30;93.00;;;;;;5054678;28;20025;-75
2022/05/24 13:55:18;;;;;;;0.00;0.00;;;18.10;92.20;;;;;;5066131;22;20047;-76